Time;durP1;ratioP1;P1;durP2;ratioP2;P2;SDS_P1;SDS_P2;PMS_P1;PMS_P2;Temp;Humidity;BMP_temperature;BMP_pressure;BME280_temperature;BME280_humidity;BME280_pressure;Samples;Min_cycle;Max_cycle;Signal;HPM_P1;HPM_P2
2022/09/04 00:02:05;;;;;;;3.57;2.80;;;;;;;22.35;63.91;98707.78;7031727;28;20288;-80
2022/09/04 00:05:31;;;;;;;2.67;2.30;;;;;;;22.21;63.80;98709.53;7031043;28;20822;-80
2022/09/04 00:09:03;;;;;;;3.23;2.70;;;;;;;22.23;64.10;98723.78;7030391;28;20231;-80
2022/09/04 00:12:30;;;;;;;2.60;2.40;;;;;;;22.23;64.07;98718.28;7031177;28;20677;-80
2022/09/04 00:15:56;;;;;;;4.00;3.00;;;;;;;21.96;64.54;98717.06;7031251;28;20229;-81
2022/09/04 00:19:26;;;;;;;4.57;2.90;;;;;;;22.04;63.96;98719.19;7030161;28;20306;-81
2022/09/04 00:22:52;;;;;;;4.60;3.20;;;;;;;21.90;64.23;98718.97;7031355;28;20197;-81
2022/09/04 00:26:21;;;;;;;3.80;3.20;;;;;;;21.98;64.04;98725.81;7030992;28;20227;-81
2022/09/04 00:29:48;;;;;;;4.00;3.00;;;;;;;21.84;64.32;98728.31;7029891;28;20208;-81
2022/09/04 00:33:12;;;;;;;3.87;3.07;;;;;;;22.03;63.98;98732.13;7030230;28;20633;-80
2022/09/04 00:36:35;;;;;;;3.87;2.93;;;;;;;21.77;64.25;98729.75;7030310;28;20297;-80
2022/09/04 00:40:03;;;;;;;3.73;3.43;;;;;;;21.45;65.37;98708.09;7029952;28;20212;-80
2022/09/04 00:43:36;;;;;;;3.10;2.90;;;;;;;21.59;64.87;98738.53;7030336;28;20640;-81
2022/09/04 00:47:29;;;;;;;4.30;3.00;;;;;;;21.71;64.58;98733.59;7030418;28;20721;-80
2022/09/04 00:51:03;;;;;;;2.90;2.70;;;;;;;21.81;63.87;98747.28;7017127;28;20363;-81
2022/09/04 00:54:47;;;;;;;2.90;2.60;;;;;;;21.59;63.94;98741.28;7030026;28;20239;-81
2022/09/04 00:58:23;;;;;;;4.03;2.97;;;;;;;21.60;63.93;98730.00;7029494;28;20206;-81
2022/09/04 01:01:46;;;;;;;4.13;3.40;;;;;;;21.53;63.97;98737.72;7030003;28;20204;-82
2022/09/04 01:05:15;;;;;;;2.80;2.60;;;;;;;21.48;63.96;98742.41;7029983;28;20244;-81
2022/09/04 01:08:47;;;;;;;3.47;3.17;;;;;;;21.25;63.86;98746.50;7029378;28;20665;-80
2022/09/04 01:12:16;;;;;;;5.67;3.00;;;;;;;21.28;64.15;98762.44;7028709;28;20197;-80
2022/09/04 01:15:42;;;;;;;3.47;3.10;;;;;;;21.32;64.48;98762.69;7029586;28;20323;-81
2022/09/04 01:19:12;;;;;;;3.50;3.10;;;;;;;21.01;64.50;98755.56;7028969;28;20184;-81
2022/09/04 01:22:49;;;;;;;4.70;3.20;;;;;;;20.48;66.54;98760.63;7029997;28;20257;-81
2022/09/04 01:26:19;;;;;;;5.50;3.40;;;;;;;20.62;66.86;98772.72;7029741;28;20220;-81
2022/09/04 01:29:46;;;;;;;6.30;3.00;;;;;;;20.60;65.86;98728.34;7029180;28;20562;-81
2022/09/04 01:33:13;;;;;;;2.83;2.63;;;;;;;21.13;65.04;98773.38;7031403;28;20189;-82
2022/09/04 01:36:41;;;;;;;5.63;2.90;;;;;;;20.93;65.08;98782.69;7030305;28;20282;-80
2022/09/04 01:40:16;;;;;;;3.30;3.00;;;;;;;20.66;66.43;98771.09;7029571;28;20583;-80
2022/09/04 01:43:39;;;;;;;3.93;2.73;;;;;;;20.83;65.58;98775.25;7030586;28;20272;-81
2022/09/04 01:47:08;;;;;;;4.10;2.90;;;;;;;20.99;65.74;98781.59;7035465;28;20308;-80
2022/09/04 01:50:31;;;;;;;3.63;2.60;;;;;;;21.19;64.07;98763.25;7035002;28;20234;-80
2022/09/04 01:54:03;;;;;;;3.20;2.47;;;;;;;21.37;63.74;98784.66;7035251;28;20197;-81
2022/09/04 01:57:38;;;;;;;2.90;2.60;;;;;;;20.98;64.07;98789.00;7034592;28;20316;-81
2022/09/04 02:01:09;;;;;;;3.67;3.27;;;;;;;21.05;64.04;98799.72;7035517;28;20261;-81
2022/09/04 02:04:34;;;;;;;4.67;2.87;;;;;;;21.00;63.86;98805.19;7035109;28;20295;-80
2022/09/04 02:08:05;;;;;;;2.93;2.73;;;;;;;21.11;63.55;98804.09;7034811;28;20224;-80
2022/09/04 02:11:29;;;;;;;2.63;2.43;;;;;;;20.96;63.98;98799.41;7034578;28;20208;-81
2022/09/04 02:15:02;;;;;;;3.63;3.33;;;;;;;21.01;63.81;98806.81;7035015;28;20300;-80
2022/09/04 02:18:34;;;;;;;3.47;3.07;;;;;;;20.89;64.30;98806.25;7035047;28;20196;-81
2022/09/04 02:22:01;;;;;;;3.40;3.10;;;;;;;20.78;64.42;98802.66;7035194;28;20283;-80
2022/09/04 02:25:27;;;;;;;5.37;3.73;;;;;;;20.59;64.66;98804.25;7033482;28;20296;-79
2022/09/04 02:28:54;;;;;;;3.23;2.90;;;;;;;20.18;65.53;98804.34;7035067;28;20253;-80
2022/09/04 02:32:19;;;;;;;3.60;3.30;;;;;;;20.03;65.81;98806.94;7036141;28;20193;-80
2022/09/04 02:35:46;;;;;;;3.40;3.10;;;;;;;20.22;65.85;98781.63;7050119;28;20237;-80
2022/09/04 02:39:14;;;;;;;5.43;3.20;;;;;;;20.36;65.32;98804.69;7041020;28;20678;-80
2022/09/04 02:42:43;;;;;;;3.47;3.17;;;;;;;20.58;65.21;98799.03;7033617;28;20224;-80
2022/09/04 02:46:09;;;;;;;4.50;3.10;;;;;;;20.83;64.11;98810.88;7033200;28;20704;-80
2022/09/04 02:49:37;;;;;;;3.20;3.00;;;;;;;20.64;63.46;98815.19;7032883;28;20274;-80
2022/09/04 02:53:13;;;;;;;4.33;3.40;;;;;;;20.20;64.44;98824.88;7033150;28;20189;-80
2022/09/04 02:56:42;;;;;;;5.80;3.40;;;;;;;20.13;63.76;98807.88;7032026;28;20231;-80
2022/09/04 03:00:08;;;;;;;5.00;3.30;;;;;;;20.24;64.56;98806.00;7032511;28;20211;-80
2022/09/04 03:03:34;;;;;;;3.60;3.30;;;;;;;20.31;64.69;98814.78;7033296;28;20199;-81
2022/09/04 03:07:01;;;;;;;3.53;3.23;;;;;;;20.14;64.58;98819.63;7032942;28;20304;-80
2022/09/04 03:10:29;;;;;;;4.03;3.20;;;;;;;20.00;64.74;98813.81;7031355;28;20679;-81
2022/09/04 03:13:59;;;;;;;4.37;3.90;;;;;;;20.11;64.79;98822.91;7032793;28;20193;-80
2022/09/04 03:17:26;;;;;;;4.37;3.50;;;;;;;20.04;64.57;98825.84;7031861;28;20309;-81
2022/09/04 03:20:53;;;;;;;4.03;3.30;;;;;;;20.23;64.18;98821.59;7031845;28;20213;-80
2022/09/04 03:24:17;;;;;;;3.63;3.33;;;;;;;19.67;65.00;98807.81;7032071;28;20268;-80
2022/09/04 03:27:41;;;;;;;4.53;3.53;;;;;;;19.65;65.68;98826.41;7032131;28;20229;-80
2022/09/04 03:31:16;;;;;;;5.23;3.37;;;;;;;19.41;67.00;98825.94;7032309;28;20228;-81
2022/09/04 03:34:47;;;;;;;4.13;3.73;;;;;;;19.95;65.37;98821.13;7034739;28;20208;-81
2022/09/04 03:38:20;;;;;;;5.10;3.60;;;;;;;19.92;65.13;98819.75;7049104;28;20228;-80
2022/09/04 03:41:45;;;;;;;4.47;3.57;;;;;;;20.17;64.72;98822.66;7040704;28;20700;-80
2022/09/04 03:45:19;;;;;;;5.10;3.97;;;;;;;20.22;63.68;98803.53;7032337;28;20264;-81
2022/09/04 03:48:48;;;;;;;4.77;3.53;;;;;;;19.96;64.31;98793.50;7032593;28;20189;-80
2022/09/04 03:52:18;;;;;;;4.33;3.97;;;;;;;19.81;64.91;98806.28;7035661;28;20224;-80
2022/09/04 03:56:01;;;;;;;4.20;3.80;;;;;;;19.96;64.44;98836.47;7032054;28;20577;-80
2022/09/04 03:59:41;;;;;;;4.87;3.70;;;;;;;20.21;64.02;98839.38;7031500;28;20671;-80
2022/09/04 04:03:16;;;;;;;4.13;3.83;;;;;;;20.07;64.04;98830.84;7031119;28;20209;-81
2022/09/04 04:06:44;;;;;;;5.80;3.57;;;;;;;20.10;63.78;98837.69;7030726;28;20235;-80
2022/09/04 04:10:19;;;;;;;4.87;4.00;;;;;;;19.64;64.98;98847.47;7029041;28;20230;-81
2022/09/04 04:14:13;;;;;;;4.90;3.93;;;;;;;19.94;64.49;98842.19;7030003;28;20282;-80
2022/09/04 04:17:48;;;;;;;4.27;3.90;;;;;;;19.84;64.08;98847.63;7028769;28;20281;-81
2022/09/04 04:21:19;;;;;;;3.97;3.67;;;;;;;19.95;63.93;98849.34;7030078;28;20249;-80
2022/09/04 04:24:53;;;;;;;4.60;3.90;;;;;;;19.90;63.88;98848.47;7031113;28;20256;-80
2022/09/04 04:28:24;;;;;;;4.13;3.70;;;;;;;19.84;64.09;98861.31;7025454;28;20197;-80
2022/09/04 04:35:38;;;;;;;5.87;3.73;;;;;;;19.87;64.29;98877.19;7003775;28;20251;-81
2022/09/04 04:39:14;;;;;;;4.27;3.40;;;;;;;19.86;64.32;98875.53;7003916;28;20261;-80
2022/09/04 04:42:42;;;;;;;4.53;3.50;;;;;;;19.82;63.75;98879.06;7004096;28;20192;-80
2022/09/04 04:46:08;;;;;;;6.17;3.67;;;;;;;19.94;63.86;98885.19;7004750;28;20245;-80
2022/09/04 04:49:41;;;;;;;4.20;3.80;;;;;;;19.91;63.92;98896.63;7029069;28;20660;-80
2022/09/04 04:53:05;;;;;;;6.10;3.97;;;;;;;19.84;63.80;98877.72;7031920;28;20193;-80
2022/09/04 04:56:33;;;;;;;4.60;4.20;;;;;;;20.13;63.09;98884.53;7032227;28;20236;-80
2022/09/04 05:00:05;;;;;;;4.40;3.77;;;;;;;19.89;63.72;98901.56;7032512;28;20185;-80
2022/09/04 05:03:36;;;;;;;4.33;3.90;;;;;;;20.07;63.29;98909.38;7032217;28;20193;-79
2022/09/04 05:07:01;;;;;;;4.13;3.73;;;;;;;20.06;63.09;98908.59;7032247;28;20225;-80
2022/09/04 05:10:30;;;;;;;4.37;4.07;;;;;;;19.97;63.98;98917.47;7030911;28;20209;-79
2022/09/04 05:14:05;;;;;;;4.23;3.93;;;;;;;19.87;63.77;98906.47;7032023;28;20231;-80
2022/09/04 05:17:33;;;;;;;7.87;4.63;;;;;;;19.57;64.22;98898.84;7031008;28;20680;-80
2022/09/04 05:20:59;;;;;;;7.60;4.23;;;;;;;19.73;64.34;98930.72;7040922;28;20220;-80
2022/09/04 05:24:25;;;;;;;4.70;4.30;;;;;;;19.26;65.80;98953.47;7041434;28;20684;-81
2022/09/04 05:27:57;;;;;;;6.13;4.43;;;;;;;19.66;65.06;98938.31;7040906;28;20233;-81
2022/09/04 05:31:30;;;;;;;7.77;4.43;;;;;;;19.92;64.29;98942.09;7022882;28;20197;-80
2022/09/04 05:35:00;;;;;;;6.07;4.27;;;;;;;19.98;63.98;98943.78;7013971;28;20228;-80
2022/09/04 05:38:28;;;;;;;6.43;4.43;;;;;;;20.05;64.23;98953.41;7012628;28;20236;-79
2022/09/04 05:42:00;;;;;;;9.07;4.73;;;;;;;19.87;64.54;98955.75;7013797;28;20201;-79
2022/09/04 05:45:24;;;;;;;4.97;4.57;;;;;;;19.87;64.74;98955.75;7016324;28;20229;-80
2022/09/04 05:48:56;;;;;;;5.70;4.23;;;;;;;20.19;65.21;98962.88;7014960;28;20282;-79
2022/09/04 05:52:33;;;;;;;5.07;3.97;;;;;;;20.60;64.11;98969.44;7049617;28;20215;-80
2022/09/04 05:56:12;;;;;;;5.33;3.67;;;;;;;20.95;63.15;98975.13;7045785;28;20277;-81
2022/09/04 05:59:54;;;;;;;4.53;4.13;;;;;;;21.23;62.87;98980.19;7016954;28;20212;-81
2022/09/04 06:03:37;;;;;;;3.87;3.57;;;;;;;21.43;61.79;98981.06;7010558;28;20286;-78
2022/09/04 06:07:07;;;;;;;3.90;3.30;;;;;;;21.72;61.55;98974.84;7011043;28;20702;-80
2022/09/04 06:10:43;;;;;;;4.10;3.70;;;;;;;21.66;60.99;98983.31;7009682;28;20287;-80
2022/09/04 06:14:19;;;;;;;3.90;3.60;;;;;;;21.83;61.41;98989.41;7011759;28;20213;-81
2022/09/04 06:17:53;;;;;;;4.27;3.87;;;;;;;21.69;61.63;98994.59;7011690;28;20245;-80
2022/09/04 06:21:38;;;;;;;4.13;3.60;;;;;;;21.99;61.11;98991.88;7013606;28;20193;-81
2022/09/04 06:25:25;;;;;;;3.50;3.20;;;;;;;22.20;61.39;98993.53;7013506;28;20231;-81
2022/09/04 06:29:14;;;;;;;3.77;3.47;;;;;;;22.16;60.47;98977.88;6978994;28;20202;-83
2022/09/04 06:33:00;;;;;;;3.33;3.03;;;;;;;22.40;60.16;99001.78;6985970;28;20247;-81
2022/09/04 06:36:32;;;;;;;3.13;2.83;;;;;;;22.57;59.94;99009.75;7023733;28;20238;-81
2022/09/04 06:40:19;;;;;;;3.90;3.10;;;;;;;23.23;58.56;99001.06;7023258;28;20221;-81
2022/09/04 06:43:45;;;;;;;4.70;3.40;;;;;;;23.74;58.03;99005.19;7007916;28;20662;-80
2022/09/04 06:47:14;;;;;;;6.90;3.60;;;;;;;23.69;56.75;99005.22;7007942;28;20219;-81
2022/09/04 06:50:43;;;;;;;4.17;3.50;;;;;;;23.47;58.01;99010.28;7023716;28;20205;-80
2022/09/04 06:54:14;;;;;;;5.43;3.50;;;;;;;23.35;58.01;99009.81;7005664;28;20196;-80
2022/09/04 06:57:54;;;;;;;4.17;3.03;;;;;;;23.74;57.00;99016.22;7007101;28;20229;-81
2022/09/04 07:01:18;;;;;;;4.80;3.83;;;;;;;24.73;55.43;99004.69;7007872;28;20299;-80
2022/09/04 07:04:48;;;;;;;2.93;2.73;;;;;;;25.72;52.15;99023.94;7027090;28;20218;-81
2022/09/04 07:08:17;;;;;;;3.20;3.00;;;;;;;25.89;52.23;99022.28;7017712;28;20229;-80
2022/09/04 07:11:50;;;;;;;3.00;2.80;;;;;;;26.17;52.12;99029.63;7014308;28;20203;-80
2022/09/04 07:15:31;;;;;;;3.20;2.90;;;;;;;26.40;50.43;99030.63;7035735;28;20278;-81
2022/09/04 07:19:32;;;;;;;2.90;2.70;;;;;;;26.72;49.32;99038.97;7037718;28;20270;-79
2022/09/04 07:23:02;;;;;;;3.87;2.90;;;;;;;26.99;48.65;99036.25;7003795;28;20214;-80
2022/09/04 07:26:29;;;;;;;3.03;2.83;;;;;;;26.83;49.14;99038.47;7006145;28;20233;-81
2022/09/04 07:29:57;;;;;;;3.40;3.00;;;;;;;27.11;49.13;99040.16;7005623;28;20520;-81
2022/09/04 07:33:26;;;;;;;2.90;2.70;;;;;;;27.40;48.33;99035.19;7006815;28;20265;-81
2022/09/04 07:36:54;;;;;;;3.10;2.80;;;;;;;27.79;46.06;99018.81;7006590;28;20374;-81
2022/09/04 07:40:17;;;;;;;2.90;2.70;;;;;;;27.49;46.76;98997.28;7005987;28;20197;-80
2022/09/04 07:43:45;;;;;;;4.30;2.53;;;;;;;28.07;46.43;99028.72;7006921;28;20626;-81
2022/09/04 07:47:13;;;;;;;3.10;2.80;;;;;;;27.55;47.61;99043.16;7005817;28;20217;-81
2022/09/04 07:50:39;;;;;;;3.23;2.93;;;;;;;27.43;47.86;99053.94;7005462;28;20222;-81
2022/09/04 07:54:23;;;;;;;3.70;2.60;;;;;;;28.06;47.81;99049.25;7009437;28;20186;-81
2022/09/04 07:58:01;;;;;;;2.90;2.70;;;;;;;28.25;46.17;99022.16;7007151;28;20307;-81
2022/09/04 08:01:49;;;;;;;3.80;2.90;;;;;;;27.83;46.39;99061.41;7022077;28;20668;-81
2022/09/04 08:05:22;;;;;;;2.97;2.77;;;;;;;26.16;50.07;99063.09;7031090;28;20717;-80
2022/09/04 08:08:57;;;;;;;3.60;3.20;;;;;;;26.51;51.53;99060.59;7032316;28;20201;-80
2022/09/04 08:12:31;;;;;;;2.77;2.57;;;;;;;28.66;46.20;99071.97;7036325;28;20205;-80
2022/09/04 08:16:00;;;;;;;4.27;3.03;;;;;;;28.43;45.60;99075.88;7038074;28;20377;-81
2022/09/04 08:19:30;;;;;;;3.00;2.67;;;;;;;27.81;47.56;99077.56;7037997;28;20209;-80
2022/09/04 08:22:57;;;;;;;3.30;3.00;;;;;;;28.91;45.91;99083.22;7038346;28;20184;-80
2022/09/04 08:26:27;;;;;;;3.93;2.73;;;;;;;27.67;45.04;99089.75;7038158;28;20264;-80
2022/09/04 08:30:03;;;;;;;2.73;2.53;;;;;;;27.73;48.21;99074.66;7040374;28;20615;-81
2022/09/04 08:33:39;;;;;;;3.17;2.67;;;;;;;26.85;48.85;99102.63;7042687;28;20207;-80
2022/09/04 08:37:07;;;;;;;2.93;2.60;;;;;;;27.29;45.97;99105.75;7040488;28;20244;-80
2022/09/04 08:40:56;;;;;;;2.40;2.20;;;;;;;27.92;46.55;99098.38;7039983;28;20235;-81
2022/09/04 08:44:54;;;;;;;3.07;2.60;;;;;;;29.10;44.69;99100.53;7042443;28;20212;-80
2022/09/04 08:48:49;;;;;;;2.90;2.60;;;;;;;29.72;43.51;99096.56;7039143;28;20223;-81
2022/09/04 08:53:07;;;;;;;3.50;1.90;;;;;;;28.41;44.19;99086.44;6995974;28;20214;-81
2022/09/04 08:56:36;;;;;;;3.00;2.20;;;;;;;28.93;43.29;99094.84;6973999;28;20759;-80
2022/09/04 09:00:10;;;;;;;4.63;2.57;;;;;;;29.34;42.33;99102.94;7039011;28;20209;-80
2022/09/04 09:03:49;;;;;;;3.87;2.53;;;;;;;28.24;43.84;99095.41;7043292;28;20318;-80
2022/09/04 09:07:47;;;;;;;2.50;2.30;;;;;;;28.74;43.17;99107.28;7048748;28;20228;-81
2022/09/04 09:11:22;;;;;;;2.20;2.00;;;;;;;29.52;43.49;99093.53;7040366;28;20567;-80
2022/09/04 09:15:08;;;;;;;2.17;1.90;;;;;;;30.03;40.58;99100.09;7035176;28;20814;-80
2022/09/04 09:18:41;;;;;;;4.10;2.30;;;;;;;28.05;43.58;99083.66;7035038;28;20299;-80
2022/09/04 09:22:10;;;;;;;2.97;1.80;;;;;;;29.02;42.85;99097.72;7035282;28;20211;-81
2022/09/04 09:25:39;;;;;;;2.10;2.00;;;;;;;29.86;42.03;99097.28;7034763;28;20710;-81
2022/09/04 09:29:29;;;;;;;2.57;2.00;;;;;;;29.56;40.57;99103.72;7035659;28;20189;-80
2022/09/04 09:33:28;;;;;;;1.90;1.80;;;;;;;28.00;43.27;99097.63;7036442;28;20215;-80
2022/09/04 09:37:12;;;;;;;2.97;2.20;;;;;;;28.76;42.95;99097.50;7035287;28;20271;-81
2022/09/04 09:40:59;;;;;;;2.17;1.97;;;;;;;28.73;42.24;99094.53;7035483;28;20217;-81
2022/09/04 09:44:51;;;;;;;2.67;1.90;;;;;;;29.67;40.91;99091.16;7035950;28;20218;-81
2022/09/04 09:48:50;;;;;;;2.20;2.00;;;;;;;28.91;41.94;99085.19;7035511;28;20355;-80
2022/09/04 09:52:50;;;;;;;2.37;2.17;;;;;;;29.93;40.58;99082.88;7036327;28;20228;-81
2022/09/04 09:56:45;;;;;;;2.27;2.07;;;;;;;31.13;38.92;99078.97;6958089;28;20291;-81
2022/09/04 10:00:10;;;;;;;1.90;1.80;;;;;;;31.39;37.62;99083.34;7014528;28;20226;-81
2022/09/04 10:03:59;;;;;;;2.07;1.83;;;;;;;31.21;37.93;99080.94;7035007;28;20284;-80
2022/09/04 10:07:57;;;;;;;1.70;1.60;;;;;;;30.19;38.36;99078.22;7033374;28;20234;-80
2022/09/04 10:11:48;;;;;;;2.30;2.10;;;;;;;29.62;39.43;99093.28;7035345;28;20192;-80
2022/09/04 10:15:51;;;;;;;1.70;1.60;;;;;;;30.43;37.93;99084.94;7037910;28;20705;-81
2022/09/04 10:19:35;;;;;;;2.10;1.90;;;;;;;30.18;38.05;99076.56;7002532;28;20697;-81
2022/09/04 10:23:13;;;;;;;2.00;1.80;;;;;;;31.26;36.73;99073.19;7008717;28;20212;-80
2022/09/04 10:27:10;;;;;;;1.87;1.77;;;;;;;31.32;36.69;99071.88;7039713;28;20264;-79
2022/09/04 10:30:43;;;;;;;1.67;1.57;;;;;;;31.26;36.24;99053.69;7000806;28;20225;-79
2022/09/04 10:34:15;;;;;;;3.27;1.70;;;;;;;32.36;34.42;99057.84;7036369;28;20243;-80
2022/09/04 10:37:49;;;;;;;1.73;1.63;;;;;;;31.58;33.92;99074.56;7035487;28;20236;-79
2022/09/04 10:41:28;;;;;;;1.83;1.73;;;;;;;31.13;35.41;99070.63;7036452;28;20198;-79
2022/09/04 10:45:06;;;;;;;1.50;1.40;;;;;;;32.54;33.13;99064.91;7034423;28;20341;-79
2022/09/04 10:48:52;;;;;;;1.40;1.30;;;;;;;32.90;32.45;99067.88;7034779;28;20199;-79
2022/09/04 10:52:34;;;;;;;2.10;1.40;;;;;;;31.99;33.31;99060.72;7035325;28;20202;-79
2022/09/04 10:56:04;;;;;;;1.60;1.50;;;;;;;32.89;32.21;99045.88;7034085;28;20236;-80
2022/09/04 10:59:43;;;;;;;1.73;1.63;;;;;;;31.60;34.28;99031.25;7034788;28;20254;-80
2022/09/04 11:03:20;;;;;;;1.83;1.60;;;;;;;31.87;34.84;99055.06;7034518;28;20647;-80
2022/09/04 11:07:13;;;;;;;2.00;1.60;;;;;;;32.55;32.42;99044.19;7035709;28;20712;-80
2022/09/04 11:10:45;;;;;;;1.67;1.53;;;;;;;32.84;33.09;99055.28;7020202;28;20209;-79
2022/09/04 11:14:24;;;;;;;1.97;1.80;;;;;;;30.58;33.58;99062.19;7035570;28;20209;-80
2022/09/04 11:18:18;;;;;;;3.10;1.67;;;;;;;31.63;33.58;99058.47;7032965;28;20296;-79
2022/09/04 11:22:05;;;;;;;1.50;1.40;;;;;;;32.18;31.56;99056.31;7031808;28;20296;-80
2022/09/04 11:26:19;;;;;;;1.90;1.80;;;;;;;31.78;32.77;99045.94;7036224;28;20707;-79
2022/09/04 11:29:54;;;;;;;2.03;1.70;;;;;;;31.01;33.14;99032.28;7011037;28;20204;-80
2022/09/04 11:33:37;;;;;;;1.70;1.60;;;;;;;31.45;32.19;99029.03;7034818;28;20192;-80
2022/09/04 11:37:39;;;;;;;3.30;1.60;;;;;;;31.98;30.62;99036.78;7032922;28;20712;-80
2022/09/04 11:41:44;;;;;;;1.30;1.30;;;;;;;31.82;31.04;99036.56;7034480;28;20185;-80
2022/09/04 11:45:28;;;;;;;1.60;1.50;;;;;;;31.87;28.94;99039.16;6962513;28;20293;-79
2022/09/04 11:49:06;;;;;;;1.47;1.30;;;;;;;31.49;27.52;99018.03;7039865;28;20220;-80
2022/09/04 11:52:45;;;;;;;1.63;1.53;;;;;;;32.10;27.12;99022.91;7033884;28;20213;-79
2022/09/04 11:56:21;;;;;;;1.20;1.10;;;;;;;32.28;28.56;99041.16;7033435;28;20234;-80
2022/09/04 12:00:08;;;;;;;1.63;1.53;;;;;;;32.58;27.48;99045.50;7033557;28;20320;-80
2022/09/04 12:04:01;;;;;;;1.33;1.23;;;;;;;32.53;28.27;99038.16;7035490;28;20187;-80
2022/09/04 12:07:33;;;;;;;1.30;1.20;;;;;;;33.63;26.66;99029.69;7021958;28;20384;-80
2022/09/04 12:11:08;;;;;;;1.50;1.40;;;;;;;33.43;26.19;99044.63;7004966;28;20214;-80
2022/09/04 12:15:04;;;;;;;1.70;1.60;;;;;;;32.37;27.52;99037.13;7006178;28;20597;-79
2022/09/04 12:18:57;;;;;;;1.67;1.40;;;;;;;32.77;25.04;99037.47;7011377;28;20229;-79
2022/09/04 12:22:51;;;;;;;1.50;1.40;;;;;;;32.40;28.13;99044.03;7017069;28;20216;-79
2022/09/04 12:26:31;;;;;;;3.53;1.73;;;;;;;32.19;28.88;99038.41;7010466;28;20229;-80
2022/09/04 12:30:12;;;;;;;1.33;1.23;;;;;;;33.05;28.76;99044.03;7005542;28;20203;-80
2022/09/04 12:33:46;;;;;;;1.63;1.50;;;;;;;32.46;29.35;99031.47;7025583;28;20214;-80
2022/09/04 12:37:34;;;;;;;1.73;1.40;;;;;;;33.03;28.57;99022.06;7032542;28;20231;-80
2022/09/04 12:41:02;;;;;;;1.97;1.40;;;;;;;33.41;27.78;99039.34;7031768;28;20636;-80
2022/09/04 12:44:34;;;;;;;2.00;1.40;;;;;;;33.29;27.61;99039.34;7031851;28;20341;-80
2022/09/04 12:48:02;;;;;;;2.73;1.60;;;;;;;31.81;27.55;99037.72;7031464;28;20223;-80
2022/09/04 12:51:25;;;;;;;1.60;1.50;;;;;;;31.60;28.08;99028.44;7033315;28;20197;-80
2022/09/04 12:54:54;;;;;;;1.57;1.40;;;;;;;31.87;27.90;99032.75;7032320;28;20231;-80
2022/09/04 12:58:23;;;;;;;1.47;1.37;;;;;;;31.78;28.59;99041.16;7033456;28;20296;-80
2022/09/04 13:01:56;;;;;;;1.93;1.70;;;;;;;31.84;27.90;99023.06;7032218;28;20224;-80
2022/09/04 13:05:45;;;;;;;3.10;1.40;;;;;;;31.27;29.00;99041.44;7026936;28;20299;-80
2022/09/04 13:09:14;;;;;;;1.63;1.53;;;;;;;31.52;28.02;99048.00;7030945;28;20190;-80
2022/09/04 13:12:41;;;;;;;1.50;1.40;;;;;;;31.33;29.38;99017.78;7031730;28;20207;-80
2022/09/04 13:16:09;;;;;;;1.70;1.60;;;;;;;31.40;30.09;99040.38;7023106;28;20318;-80
2022/09/04 13:19:37;;;;;;;1.93;1.63;;;;;;;31.47;29.21;99051.81;7023197;28;20313;-80
2022/09/04 13:23:10;;;;;;;2.07;1.80;;;;;;;32.02;28.16;99051.69;7032393;28;20353;-79
2022/09/04 13:26:55;;;;;;;1.43;1.33;;;;;;;32.73;26.68;99045.66;7028190;28;20315;-80
2022/09/04 13:30:20;;;;;;;3.60;1.40;;;;;;;32.23;27.32;99013.44;7030713;28;20196;-80
2022/09/04 13:33:52;;;;;;;1.10;1.10;;;;;;;32.10;26.92;99042.44;7032027;28;20862;-80
2022/09/04 13:37:22;;;;;;;1.37;1.27;;;;;;;32.35;27.26;99053.44;7031555;28;20258;-80
2022/09/04 13:41:00;;;;;;;1.27;1.20;;;;;;;32.48;26.67;99052.31;7034406;28;20229;-79
2022/09/04 13:44:49;;;;;;;1.30;1.20;;;;;;;32.61;28.26;99042.03;7035868;28;20210;-79
2022/09/04 13:48:13;;;;;;;1.90;1.60;;;;;;;32.09;28.24;99038.84;7036045;28;20209;-79
2022/09/04 13:51:38;;;;;;;1.70;1.50;;;;;;;32.91;27.17;99043.56;7036507;28;20206;-79
2022/09/04 13:55:05;;;;;;;1.53;1.13;;;;;;;33.64;25.74;99045.28;7036098;28;20276;-80
2022/09/04 13:58:30;;;;;;;2.17;1.40;;;;;;;33.34;25.82;99044.72;7033978;28;20219;-80
2022/09/04 14:01:54;;;;;;;1.67;1.50;;;;;;;32.01;27.16;99020.16;7031288;28;20194;-79
2022/09/04 14:05:19;;;;;;;1.80;1.60;;;;;;;31.91;27.55;99034.50;7008537;28;20696;-79
2022/09/04 14:08:42;;;;;;;1.43;1.33;;;;;;;31.91;27.77;99039.28;7007741;28;20190;-79
2022/09/04 14:12:14;;;;;;;1.60;1.50;;;;;;;31.69;28.91;99036.75;7007860;28;20205;-79
2022/09/04 14:15:56;;;;;;;1.70;1.23;;;;;;;31.27;28.46;99019.13;7008096;28;20225;-79
2022/09/04 14:19:35;;;;;;;1.77;1.67;;;;;;;31.08;29.04;99001.94;7009301;28;20274;-79
2022/09/04 14:23:04;;;;;;;1.70;1.60;;;;;;;31.51;28.29;99029.66;7011863;28;20630;-79
2022/09/04 14:26:35;;;;;;;2.10;1.50;;;;;;;32.15;27.64;99045.03;7008685;28;20319;-80
2022/09/04 14:30:06;;;;;;;2.37;1.40;;;;;;;32.12;27.30;99034.53;7008111;28;20196;-79
2022/09/04 14:33:35;;;;;;;1.60;1.37;;;;;;;32.30;26.48;99053.63;7008335;28;20194;-80
2022/09/04 14:37:06;;;;;;;1.37;1.27;;;;;;;31.86;27.12;99037.53;7008577;28;20626;-82
2022/09/04 14:40:30;;;;;;;2.17;1.50;;;;;;;32.42;26.83;99028.56;7007120;28;20569;-81
2022/09/04 14:44:02;;;;;;;1.37;1.27;;;;;;;32.47;26.80;99028.34;7034029;28;20201;-81
2022/09/04 14:47:34;;;;;;;2.50;1.40;;;;;;;32.70;27.16;99042.75;7037482;28;20232;-81
2022/09/04 14:50:58;;;;;;;3.27;1.50;;;;;;;32.77;26.89;99043.06;7030574;28;20209;-81
2022/09/04 14:54:25;;;;;;;1.13;1.13;;;;;;;31.27;27.93;99043.38;7035931;28;20212;-81
2022/09/04 14:57:50;;;;;;;1.63;1.30;;;;;;;30.40;29.03;99040.25;7031419;28;20204;-80
2022/09/04 15:01:18;;;;;;;1.50;1.40;;;;;;;31.71;28.22;99045.59;7007474;28;20209;-81
2022/09/04 15:04:46;;;;;;;1.37;1.17;;;;;;;31.91;27.41;99036.50;7008241;28;20208;-81
2022/09/04 15:08:08;;;;;;;1.67;1.40;;;;;;;32.01;27.69;99014.59;7007709;28;20201;-81
2022/09/04 15:11:32;;;;;;;1.87;1.40;;;;;;;32.28;26.86;99038.38;7008008;28;20202;-81
2022/09/04 15:14:59;;;;;;;1.50;1.40;;;;;;;31.74;27.50;99023.50;7023929;28;20281;-81
2022/09/04 15:18:23;;;;;;;1.97;1.60;;;;;;;32.23;26.99;99035.75;7034556;28;20261;-81
2022/09/04 15:21:51;;;;;;;2.70;1.70;;;;;;;31.60;27.68;99003.34;7032128;28;20360;-81
2022/09/04 15:25:31;;;;;;;3.20;1.63;;;;;;;31.92;27.20;99025.00;7006784;28;20228;-81
2022/09/04 15:28:56;;;;;;;1.60;1.50;;;;;;;31.81;27.58;99009.00;7028028;28;20695;-81
2022/09/04 15:32:20;;;;;;;1.60;1.50;;;;;;;32.04;27.75;99024.25;7056371;28;20220;-81
2022/09/04 15:35:42;;;;;;;1.73;1.63;;;;;;;31.83;28.06;99027.03;7070769;28;20582;-81
2022/09/04 15:39:07;;;;;;;2.17;1.60;;;;;;;32.30;27.25;99010.97;7064384;28;20238;-81
2022/09/04 15:42:44;;;;;;;1.67;1.30;;;;;;;32.03;27.58;99019.84;7036238;28;20228;-81
2022/09/04 15:46:10;;;;;;;1.50;1.40;;;;;;;32.11;27.35;99022.56;7028437;28;20565;-81
2022/09/04 15:49:42;;;;;;;4.37;1.60;;;;;;;32.38;26.72;99010.06;7029426;28;20657;-82
2022/09/04 15:53:13;;;;;;;1.40;1.23;;;;;;;32.12;27.36;99007.44;7032428;28;20274;-82
2022/09/04 15:56:38;;;;;;;1.50;1.40;;;;;;;32.03;27.56;99000.31;7034079;28;20250;-83
2022/09/04 16:00:03;;;;;;;3.37;2.43;;;;;;;31.47;28.44;98990.50;7034007;28;20232;-79
2022/09/04 16:03:35;;;;;;;1.73;1.63;;;;;;;31.77;27.62;98996.91;7027164;28;20197;-81
2022/09/04 16:07:18;;;;;;;1.70;1.43;;;;;;;32.07;27.51;99012.44;7004707;28;20261;-81
2022/09/04 16:10:46;;;;;;;2.37;1.37;;;;;;;31.91;26.97;98995.47;7004397;28;20191;-82
2022/09/04 16:14:16;;;;;;;3.20;1.33;;;;;;;31.66;27.82;99012.38;7003466;28;20200;-82
2022/09/04 16:17:41;;;;;;;1.40;1.30;;;;;;;31.92;27.96;99010.22;7008338;28;20258;-82
2022/09/04 16:21:06;;;;;;;1.80;1.60;;;;;;;32.01;27.74;99013.78;7019785;28;20231;-81
2022/09/04 16:24:30;;;;;;;1.33;1.10;;;;;;;31.58;28.17;99000.09;7018730;28;20258;-81
2022/09/04 16:27:54;;;;;;;1.53;1.43;;;;;;;31.78;27.28;99002.13;7032472;28;20201;-81
2022/09/04 16:31:24;;;;;;;2.47;1.30;;;;;;;31.65;28.89;99003.16;7032575;28;20284;-81
2022/09/04 16:34:48;;;;;;;2.40;1.50;;;;;;;31.76;29.70;98987.72;7033066;28;20219;-81
2022/09/04 16:38:14;;;;;;;1.70;1.60;;;;;;;31.91;29.47;99003.81;7031945;28;20288;-81
2022/09/04 16:41:38;;;;;;;2.10;1.70;;;;;;;31.79;29.95;99000.97;7032356;28;20184;-81
2022/09/04 16:45:04;;;;;;;3.50;1.40;;;;;;;31.72;29.44;99002.69;7032402;28;20222;-81
2022/09/04 16:48:32;;;;;;;1.77;1.30;;;;;;;31.59;30.80;99001.72;7003745;28;20239;-82
2022/09/04 16:51:58;;;;;;;2.03;1.80;;;;;;;31.39;31.62;99005.31;7031995;28;20214;-81